GIA4901 WIII-WADL
Flight info
| Callsign | GIA4901 |
|---|---|
| Flight time | N/A |
| Altitude | 41000 |
| Route | CA T3 BA T19 SOVKA |
| Aircraft | B77W/H-SDE1E2E3FGHIJ2J3J4J5M1RWXY/LB1D1 |
Departure
| Time | N/A |
|---|---|
| Airport | Soekarno-Hatta International Airport (WIII) |
Arrival
| Time | 2026-04-24 12:28 |
|---|---|
| Airport | Lombok International Airport (WADL) |
| Time | Latitude | Longitude | Altitude | Speed | Heading |
|---|---|---|---|---|---|
| 2026-04-24 11:47 | -7.17005 | 112.54574 | 40839 ft | 472 kts | 98° |
| 2026-04-24 11:48 | -7.18023 | 112.61107 | 40844 ft | 472 kts | 98° |
| 2026-04-24 11:48 | -7.19039 | 112.67633 | 40848 ft | 472 kts | 98° |
| 2026-04-24 11:49 | -7.20054 | 112.74163 | 40848 ft | 472 kts | 98° |
| 2026-04-24 11:49 | -7.21068 | 112.80691 | 40851 ft | 472 kts | 98° |
| 2026-04-24 11:50 | -7.22082 | 112.87226 | 40851 ft | 472 kts | 98° |
| 2026-04-24 11:50 | -7.23095 | 112.93757 | 40851 ft | 472 kts | 98° |
| 2026-04-24 11:51 | -7.24107 | 113.00292 | 40844 ft | 472 kts | 98° |
| 2026-04-24 11:51 | -7.25119 | 113.06831 | 40843 ft | 473 kts | 98° |
| 2026-04-24 11:52 | -7.26129 | 113.13370 | 40844 ft | 473 kts | 98° |
| 2026-04-24 11:52 | -7.27140 | 113.19913 | 40844 ft | 473 kts | 98° |
| 2026-04-24 11:53 | -7.28149 | 113.26454 | 40848 ft | 473 kts | 98° |
| 2026-04-24 11:53 | -7.28987 | 113.31892 | 40846 ft | 473 kts | 98° |
| 2026-04-24 11:54 | -7.29995 | 113.38437 | 40844 ft | 473 kts | 98° |
| 2026-04-24 11:54 | -7.31003 | 113.44980 | 40848 ft | 473 kts | 98° |
| 2026-04-24 11:55 | -7.32009 | 113.51524 | 40849 ft | 473 kts | 98° |
| 2026-04-24 11:55 | -7.33013 | 113.58067 | 40852 ft | 473 kts | 97° |
| 2026-04-24 11:56 | -7.34018 | 113.64615 | 40854 ft | 473 kts | 97° |
| 2026-04-24 11:56 | -7.35015 | 113.71120 | 40855 ft | 473 kts | 97° |
| 2026-04-24 11:57 | -7.36024 | 113.77712 | 40854 ft | 473 kts | 98° |
| 2026-04-24 11:57 | -7.37019 | 113.84216 | 40854 ft | 473 kts | 97° |
| 2026-04-24 11:58 | -7.38020 | 113.90768 | 40856 ft | 473 kts | 97° |
| 2026-04-24 11:58 | -7.39020 | 113.97323 | 40860 ft | 474 kts | 98° |
| 2026-04-24 11:59 | -7.40020 | 114.03879 | 40858 ft | 474 kts | 98° |
| 2026-04-24 11:59 | -7.41020 | 114.10445 | 40863 ft | 474 kts | 98° |
| 2026-04-24 12:00 | -7.42018 | 114.17006 | 40867 ft | 474 kts | 98° |
| 2026-04-24 12:00 | -7.43017 | 114.23574 | 40867 ft | 474 kts | 98° |
| 2026-04-24 12:01 | -7.44015 | 114.30146 | 40869 ft | 475 kts | 97° |
| 2026-04-24 12:01 | -7.45013 | 114.36723 | 40869 ft | 475 kts | 98° |
| 2026-04-24 12:02 | -7.46120 | 114.43279 | 40866 ft | 475 kts | 101° |
| 2026-04-24 12:02 | -7.47527 | 114.49788 | 40868 ft | 475 kts | 102° |
| 2026-04-24 12:03 | -7.48973 | 114.56291 | 40869 ft | 476 kts | 101° |
| 2026-04-24 12:03 | -7.50395 | 114.62798 | 40870 ft | 476 kts | 101° |
| 2026-04-24 12:04 | -7.51105 | 114.66085 | 40237 ft | 485 kts | 101° |
| 2026-04-24 12:04 | -7.51818 | 114.69398 | 39577 ft | 480 kts | 101° |
| 2026-04-24 12:04 | -7.52516 | 114.72641 | 38843 ft | 467 kts | 101° |
| 2026-04-24 12:04 | -7.53196 | 114.75798 | 38043 ft | 456 kts | 101° |
| 2026-04-24 12:05 | -7.53852 | 114.78844 | 37260 ft | 445 kts | 101° |
| 2026-04-24 12:05 | -7.54502 | 114.81865 | 36514 ft | 441 kts | 101° |
| 2026-04-24 12:05 | -7.55158 | 114.84924 | 35768 ft | 454 kts | 101° |
| 2026-04-24 12:05 | -7.55840 | 114.88105 | 34857 ft | 476 kts | 101° |
| 2026-04-24 12:06 | -7.56548 | 114.91406 | 33849 ft | 486 kts | 101° |
| 2026-04-24 12:06 | -7.57264 | 114.94740 | 32984 ft | 484 kts | 101° |
| 2026-04-24 12:06 | -7.57972 | 114.98035 | 32268 ft | 479 kts | 102° |
| 2026-04-24 12:06 | -7.58675 | 115.01304 | 31587 ft | 475 kts | 102° |
| 2026-04-24 12:07 | -7.59371 | 115.04544 | 30926 ft | 471 kts | 102° |
| 2026-04-24 12:07 | -7.60059 | 115.07752 | 30261 ft | 467 kts | 102° |
| 2026-04-24 12:07 | -7.60743 | 115.10944 | 29539 ft | 464 kts | 102° |
| 2026-04-24 12:07 | -7.61421 | 115.14107 | 28804 ft | 460 kts | 102° |
| 2026-04-24 12:08 | -7.62094 | 115.17245 | 28128 ft | 456 kts | 102° |
| 2026-04-24 12:08 | -7.62759 | 115.20350 | 27467 ft | 451 kts | 102° |
| 2026-04-24 12:08 | -7.63418 | 115.23431 | 26820 ft | 448 kts | 102° |
| 2026-04-24 12:08 | -7.64072 | 115.26484 | 26180 ft | 444 kts | 102° |
| 2026-04-24 12:09 | -7.64720 | 115.29516 | 25541 ft | 441 kts | 102° |
| 2026-04-24 12:09 | -7.65364 | 115.32529 | 24885 ft | 439 kts | 102° |
| 2026-04-24 12:09 | -7.66004 | 115.35524 | 24254 ft | 436 kts | 102° |
| 2026-04-24 12:09 | -7.66642 | 115.38509 | 23620 ft | 434 kts | 102° |
| 2026-04-24 12:10 | -7.67294 | 115.41463 | 22897 ft | 426 kts | 105° |
| 2026-04-24 12:10 | -7.68490 | 115.44179 | 22253 ft | 423 kts | 122° |
| 2026-04-24 12:10 | -7.70370 | 115.46433 | 21642 ft | 420 kts | 138° |
| 2026-04-24 12:11 | -7.74955 | 115.49949 | 20458 ft | 411 kts | 142° |
| 2026-04-24 12:11 | -7.77244 | 115.51654 | 19873 ft | 409 kts | 142° |
| 2026-04-24 12:11 | -7.79520 | 115.53365 | 19276 ft | 407 kts | 142° |
| 2026-04-24 12:11 | -7.81781 | 115.55083 | 18686 ft | 406 kts | 142° |
| 2026-04-24 12:12 | -7.84025 | 115.56801 | 18075 ft | 405 kts | 141° |
| 2026-04-24 12:12 | -7.86262 | 115.58520 | 17417 ft | 403 kts | 141° |
| 2026-04-24 12:12 | -7.88480 | 115.60229 | 16806 ft | 400 kts | 141° |
| 2026-04-24 12:12 | -7.90680 | 115.61925 | 16197 ft | 397 kts | 141° |
| 2026-04-24 12:13 | -7.92866 | 115.63609 | 15639 ft | 394 kts | 141° |
| 2026-04-24 12:13 | -7.94996 | 115.65249 | 15039 ft | 376 kts | 141° |
| 2026-04-24 12:13 | -7.97027 | 115.66813 | 14482 ft | 359 kts | 141° |
| 2026-04-24 12:13 | -7.98933 | 115.68344 | 13969 ft | 343 kts | 135° |
| 2026-04-24 12:14 | -8.00326 | 115.70213 | 13697 ft | 334 kts | 119° |
| 2026-04-24 12:14 | -8.01541 | 115.72312 | 13411 ft | 356 kts | 119° |
| 2026-04-24 12:14 | -8.02797 | 115.74471 | 13106 ft | 358 kts | 120° |
| 2026-04-24 12:14 | -8.04069 | 115.76635 | 12807 ft | 358 kts | 120° |
| 2026-04-24 12:15 | -8.05345 | 115.78785 | 12569 ft | 355 kts | 120° |
| 2026-04-24 12:15 | -8.06616 | 115.80915 | 12309 ft | 354 kts | 120° |
| 2026-04-24 12:15 | -8.07884 | 115.83035 | 12036 ft | 352 kts | 120° |
| 2026-04-24 12:15 | -8.09133 | 115.85120 | 11771 ft | 351 kts | 120° |
| 2026-04-24 12:16 | -8.10395 | 115.87227 | 11500 ft | 351 kts | 120° |
| 2026-04-24 12:16 | -8.11679 | 115.89300 | 11201 ft | 344 kts | 126° |
| 2026-04-24 12:16 | -8.13420 | 115.90894 | 10963 ft | 333 kts | 148° |
| 2026-04-24 12:16 | -8.15498 | 115.91745 | 10702 ft | 314 kts | 165° |
| 2026-04-24 12:17 | -8.17603 | 115.91985 | 10452 ft | 297 kts | 177° |
| 2026-04-24 12:17 | -8.19637 | 115.91997 | 10228 ft | 292 kts | 178° |
| 2026-04-24 12:17 | -8.21674 | 115.91987 | 10014 ft | 294 kts | 179° |
| 2026-04-24 12:17 | -8.23719 | 115.91981 | 9783 ft | 293 kts | 178° |
| 2026-04-24 12:18 | -8.25757 | 115.91983 | 9531 ft | 293 kts | 178° |
| 2026-04-24 12:18 | -8.27789 | 115.91993 | 9288 ft | 291 kts | 178° |
| 2026-04-24 12:18 | -8.29802 | 115.92008 | 9051 ft | 287 kts | 178° |
| 2026-04-24 12:18 | -8.31782 | 115.92025 | 8822 ft | 282 kts | 178° |
| 2026-04-24 12:19 | -8.33735 | 115.92041 | 8604 ft | 279 kts | 178° |
| 2026-04-24 12:19 | -8.35606 | 115.92331 | 8363 ft | 272 kts | 155° |
| 2026-04-24 12:19 | -8.37238 | 115.93297 | 8185 ft | 276 kts | 145° |
| 2026-04-24 12:19 | -8.38862 | 115.94373 | 7972 ft | 281 kts | 145° |
| 2026-04-24 12:20 | -8.40492 | 115.95451 | 7753 ft | 279 kts | 145° |
| 2026-04-24 12:20 | -8.42105 | 115.96514 | 7517 ft | 275 kts | 145° |
| 2026-04-24 12:20 | -8.43693 | 115.97558 | 7306 ft | 270 kts | 145° |
| 2026-04-24 12:20 | -8.45264 | 115.98589 | 7100 ft | 269 kts | 146° |
| 2026-04-24 12:21 | -8.46829 | 115.99615 | 6877 ft | 268 kts | 146° |
| 2026-04-24 12:21 | -8.48394 | 116.00640 | 6689 ft | 268 kts | 146° |
| 2026-04-24 12:21 | -8.49960 | 116.01663 | 6468 ft | 268 kts | 146° |
| 2026-04-24 12:21 | -8.51528 | 116.02688 | 6246 ft | 268 kts | 146° |
| 2026-04-24 12:22 | -8.53091 | 116.03710 | 6037 ft | 268 kts | 146° |
| 2026-04-24 12:22 | -8.54668 | 116.04742 | 5702 ft | 272 kts | 146° |
| 2026-04-24 12:22 | -8.56255 | 116.05780 | 5373 ft | 272 kts | 146° |
| 2026-04-24 12:22 | -8.57845 | 116.06821 | 5038 ft | 272 kts | 146° |
| 2026-04-24 12:23 | -8.59431 | 116.07858 | 4711 ft | 272 kts | 146° |
| 2026-04-24 12:23 | -8.60890 | 116.09018 | 4424 ft | 261 kts | 133° |
| 2026-04-24 12:23 | -8.62019 | 116.10352 | 4107 ft | 240 kts | 127° |
| 2026-04-24 12:23 | -8.63008 | 116.11637 | 3822 ft | 223 kts | 127° |
| 2026-04-24 12:24 | -8.63944 | 116.12824 | 3546 ft | 208 kts | 128° |
| 2026-04-24 12:24 | -8.64812 | 116.13912 | 3302 ft | 189 kts | 128° |
| 2026-04-24 12:24 | -8.65611 | 116.14911 | 3116 ft | 181 kts | 128° |
| 2026-04-24 12:24 | -8.66408 | 116.15905 | 2852 ft | 181 kts | 128° |
| 2026-04-24 12:25 | -8.67192 | 116.16882 | 2639 ft | 178 kts | 128° |
| 2026-04-24 12:25 | -8.67968 | 116.17854 | 2401 ft | 178 kts | 128° |
| 2026-04-24 12:25 | -8.68745 | 116.18823 | 2171 ft | 177 kts | 128° |
| 2026-04-24 12:25 | -8.69500 | 116.19765 | 1936 ft | 170 kts | 128° |
| 2026-04-24 12:26 | -8.70211 | 116.20655 | 1736 ft | 154 kts | 128° |
| 2026-04-24 12:26 | -8.70855 | 116.21456 | 1521 ft | 140 kts | 129° |
| 2026-04-24 12:26 | -8.71466 | 116.22220 | 1388 ft | 138 kts | 128° |
| 2026-04-24 12:26 | -8.72055 | 116.22961 | 1222 ft | 138 kts | 128° |
| 2026-04-24 12:27 | -8.72654 | 116.23715 | 1026 ft | 137 kts | 130° |
| 2026-04-24 12:27 | -8.73251 | 116.24451 | 867 ft | 136 kts | 129° |
| 2026-04-24 12:27 | -8.73847 | 116.25203 | 681 ft | 137 kts | 130° |
| 2026-04-24 12:27 | -8.74442 | 116.25942 | 525 ft | 135 kts | 130° |
| 2026-04-24 12:28 | -8.75031 | 116.26667 | 359 ft | 131 kts | 130° |
| 2026-04-24 12:28 | -8.75556 | 116.27317 | 330 ft | 106 kts | 129° |
| 2026-04-24 12:28 | -8.75940 | 116.27799 | 332 ft | 70 kts | 129° |
| 2026-04-24 12:28 | -8.76171 | 116.28085 | 354 ft | 35 kts | 129° |
| 2026-04-24 12:29 | -8.76251 | 116.28183 | 353 ft | 10 kts | 128° |
| 2026-04-24 12:29 | -8.76323 | 116.28275 | 354 ft | 19 kts | 129° |
| 2026-04-24 12:29 | -8.76410 | 116.28377 | 350 ft | 18 kts | 128° |
| 2026-04-24 12:29 | -8.76459 | 116.28467 | 356 ft | 9 kts | 127° |
| 2026-04-24 12:30 | -8.76488 | 116.28470 | 356 ft | 4 kts | 231° |
| 2026-04-24 12:30 | -8.76469 | 116.28441 | 352 ft | 7 kts | 322° |
| 2026-04-24 12:30 | -8.76411 | 116.28382 | 356 ft | 17 kts | 308° |
| 2026-04-24 12:30 | -8.76329 | 116.28280 | 350 ft | 19 kts | 309° |
| 2026-04-24 12:31 | -8.76245 | 116.28177 | 353 ft | 19 kts | 309° |
| 2026-04-24 12:31 | -8.76161 | 116.28072 | 352 ft | 20 kts | 310° |
| 2026-04-24 12:31 | -8.76067 | 116.27959 | 350 ft | 22 kts | 309° |
| 2026-04-24 12:31 | -8.76009 | 116.27888 | 344 ft | 8 kts | 309° |
| 2026-04-24 12:32 | -8.76010 | 116.27830 | 335 ft | 10 kts | 239° |
| 2026-04-24 12:32 | -8.76069 | 116.27780 | 334 ft | 13 kts | 218° |
| 2026-04-24 12:32 | -8.76142 | 116.27720 | 332 ft | 11 kts | 220° |
| 2026-04-24 12:32 | -8.76171 | 116.27671 | 333 ft | 8 kts | 270° |
| 2026-04-24 12:33 | -8.76143 | 116.27615 | 331 ft | 10 kts | 309° |
| 2026-04-24 12:33 | -8.76094 | 116.27554 | 332 ft | 12 kts | 309° |
| 2026-04-24 12:33 | -8.76035 | 116.27481 | 333 ft | 14 kts | 308° |
| 2026-04-24 12:33 | -8.75985 | 116.27417 | 331 ft | 10 kts | 308° |
| 2026-04-24 12:34 | -8.75945 | 116.27366 | 332 ft | 9 kts | 308° |
| 2026-04-24 12:34 | -8.75916 | 116.27330 | 331 ft | 4 kts | 295° |
| 2026-04-24 12:34 | -8.75924 | 116.27298 | 333 ft | 5 kts | 230° |
| 2026-04-24 12:34 | -8.75956 | 116.27271 | 335 ft | 6 kts | 220° |
| 2026-04-24 12:35 | -8.75964 | 116.27264 | 331 ft | 0 kts | 219° |